Time;durP1;ratioP1;P1;durP2;ratioP2;P2;SDS_P1;SDS_P2;PMS_P1;PMS_P2;Temp;Humidity;BMP_temperature;BMP_pressure;BME280_temperature;BME280_humidity;BME280_pressure;Samples;Min_cycle;Max_cycle;Signal;HPM_P1;HPM_P2
2022/09/25 08:50:09;;;;;;;;;2.25;2.25;;;;;15.31;60.33;101465.34;2448987;28;45226;-75
2022/09/25 08:51:20;;;;;;;;;3.00;2.00;;;;;15.37;59.68;101464.22;2449091;27;45423;-75
2022/09/25 08:52:33;;;;;;;;;3.00;2.25;;;;;15.45;60.02;101470.06;2449652;28;45328;-75
2022/09/25 08:53:45;;;;;;;;;4.25;3.00;;;;;15.51;59.75;101467.16;2449255;28;45509;-75
2022/09/25 08:54:55;;;;;;;;;2.00;1.50;;;;;15.58;60.09;101467.75;2449522;28;45188;-75
2022/09/25 08:56:19;;;;;;;;;2.25;2.00;;;;;15.65;59.70;101460.41;2448995;28;46680;-75
2022/09/25 08:57:36;;;;;;;;;1.75;1.75;;;;;15.73;58.77;101474.19;2449625;27;45147;-75
2022/09/25 08:59:04;;;;;;;;;1.50;1.50;;;;;15.77;59.27;101459.03;2449412;28;45547;-75
2022/09/25 09:00:20;;;;;;;;;4.00;2.00;;;;;15.82;58.62;101458.81;2449649;28;45204;-76
2022/09/25 09:01:46;;;;;;;;;2.00;1.00;;;;;15.88;58.86;101457.69;2448687;28;45573;-75
2022/09/25 09:02:58;;;;;;;;;1.50;1.50;;;;;15.92;58.37;101456.63;2448411;27;44772;-75
2022/09/25 09:04:34;;;;;;;;;2.75;1.50;;;;;15.98;57.70;101465.16;2446063;27;45636;-75
2022/09/25 09:05:48;;;;;;;;;2.25;2.25;;;;;16.01;58.10;101466.81;2447140;28;44713;-75
2022/09/25 09:07:08;;;;;;;;;2.25;1.25;;;;;16.02;56.78;101463.25;2448384;28;45480;-74
2022/09/25 09:08:24;;;;;;;;;2.50;1.25;;;;;16.06;57.72;101461.34;2449542;27;45321;-74
2022/09/25 09:09:46;;;;;;;;;1.00;1.00;;;;;16.08;57.83;101456.81;2458733;27;45454;-74
2022/09/25 09:11:04;;;;;;;;;1.75;1.00;;;;;16.14;58.15;101459.22;2459248;27;45311;-74
2022/09/25 09:12:24;;;;;;;;;1.00;1.00;;;;;16.19;58.14;101470.47;2449263;27;46406;-74
2022/09/25 09:14:04;;;;;;;;;2.25;1.25;;;;;16.23;55.51;101476.47;2449387;27;44589;-75
2022/09/25 09:15:54;;;;;;;;;2.50;1.00;;;;;16.30;56.54;101471.75;2438248;28;46587;-75
2022/09/25 09:17:16;;;;;;;;;1.75;1.75;;;;;16.35;56.40;101468.88;2445916;28;44712;-77
2022/09/25 09:18:35;;;;;;;;;1.00;1.00;;;;;16.37;56.29;101467.06;2440488;28;45570;-77
2022/09/25 09:19:58;;;;;;;;;2.00;2.00;;;;;16.41;56.42;101469.50;2448219;28;45236;-82
2022/09/25 09:21:26;;;;;;;;;3.25;1.00;;;;;16.48;55.85;101480.66;2448303;28;45737;-78
2022/09/25 09:22:44;;;;;;;;;1.00;0.00;;;;;16.50;54.59;101462.00;2449403;28;45317;-77
2022/09/25 09:24:27;;;;;;;;;2.25;1.50;;;;;16.49;54.00;101463.84;2448259;28;47295;-77
2022/09/25 09:26:04;;;;;;;;;1.00;1.00;;;;;16.50;54.43;101467.31;2435800;28;44808;-76
2022/09/25 09:27:17;;;;;;;;;1.25;1.00;;;;;16.52;53.72;101476.94;2442370;28;46473;-77
2022/09/25 09:28:28;;;;;;;;;1.00;1.00;;;;;16.53;53.57;101467.19;2453127;27;45495;-77
2022/09/25 09:29:49;;;;;;;;;1.50;1.50;;;;;16.56;53.49;101471.50;2456384;27;46247;-77
2022/09/25 09:31:11;;;;;;;;;1.00;1.00;;;;;16.59;54.86;101474.00;2448842;27;45388;-77
2022/09/25 09:32:32;;;;;;;;;2.00;0.00;;;;;16.62;53.89;101466.75;2447541;27;46193;-77
2022/09/25 09:34:15;;;;;;;;;2.50;0.25;;;;;16.67;54.70;101463.88;2458005;27;45312;-77
2022/09/25 09:35:59;;;;;;;;;1.00;1.00;;;;;16.72;54.49;101467.16;2433473;28;45415;-77
2022/09/25 09:37:30;;;;;;;;;1.00;1.00;;;;;16.76;54.30;101459.94;2454094;27;45388;-77
2022/09/25 09:39:14;;;;;;;;;2.00;0.00;;;;;16.82;54.35;101467.59;2443214;28;46445;-77
2022/09/25 09:41:07;;;;;;;;;2.00;1.00;;;;;16.85;52.29;101466.59;2449134;28;45277;-77
2022/09/25 09:42:44;;;;;;;;;1.00;1.00;;;;;16.89;53.36;101468.16;2436934;28;46454;-77
2022/09/25 09:44:11;;;;;;;;;0.00;0.00;;;;;16.94;52.57;101481.22;2446188;28;45187;-76
2022/09/25 09:45:59;;;;;;;;;1.00;1.00;;;;;16.92;52.39;101470.66;2448869;28;45432;-76
2022/09/25 09:47:28;;;;;;;;;1.00;1.00;;;;;16.92;51.65;101468.00;2438594;27;45438;-77
2022/09/25 09:48:50;;;;;;;;;2.75;0.00;;;;;16.86;49.84;101469.19;2458827;27;45589;-75
2022/09/25 09:50:05;;;;;;;;;0.50;0.50;;;;;16.90;50.10;101466.34;2458835;27;45519;-74
2022/09/25 09:51:24;;;;;;;;;1.75;0.00;;;;;16.91;51.23;101461.00;2455118;27;46484;-75
2022/09/25 09:52:38;;;;;;;;;1.25;1.00;;;;;16.92;50.54;101465.34;2450080;27;45260;-75
2022/09/25 09:53:57;;;;;;;;;0.00;0.00;;;;;16.94;50.80;101473.25;2458841;27;46544;-75
2022/09/25 09:55:19;;;;;;;;;0.00;0.00;;;;;16.94;50.44;101473.25;2458922;27;45309;-76
2022/09/25 09:56:32;;;;;;;;;0.00;0.00;;;;;16.94;50.12;101468.78;2457896;27;45540;-76
2022/09/25 09:57:46;;;;;;;;;1.00;1.00;;;;;16.95;49.18;101462.56;2460708;27;45145;-76
2022/09/25 09:59:41;;;;;;;;;1.00;0.50;;;;;17.04;50.59;101465.72;2464422;27;45570;-76
2022/09/25 10:00:52;;;;;;;;;0.00;0.00;;;;;17.08;51.08;101451.34;2446478;27;45184;-76
2022/09/25 10:02:23;;;;;;;;;0.00;0.00;;;;;17.14;50.35;101466.97;2461642;27;46103;-76
2022/09/25 10:03:37;;;;;;;;;0.75;0.00;;;;;17.17;49.69;101460.66;2453176;27;45216;-77
2022/09/25 10:04:49;;;;;;;;;1.00;1.00;;;;;17.18;48.41;101462.41;2441439;28;46305;-75
2022/09/25 10:06:04;;;;;;;;;1.00;1.00;;;;;17.18;47.37;101459.75;2444431;28;45248;-75
2022/09/25 10:07:18;;;;;;;;;2.00;1.00;;;;;17.17;47.62;101466.84;2451878;28;48180;-75
2022/09/25 10:08:28;;;;;;;;;0.75;0.75;;;;;17.22;48.74;101463.97;2451922;28;45321;-77
2022/09/25 10:09:39;;;;;;;;;0.00;0.00;;;;;17.22;46.74;101474.59;2452010;28;46650;-75
2022/09/25 10:10:52;;;;;;;;;1.75;0.00;;;;;17.25;48.78;101458.50;2452189;27;45414;-76
2022/09/25 10:12:14;;;;;;;;;1.00;1.00;;;;;17.30;48.99;101458.25;2452184;28;45409;-75
2022/09/25 10:13:29;;;;;;;;;1.00;1.00;;;;;17.35;49.58;101458.03;2452341;28;45223;-76
2022/09/25 10:14:45;;;;;;;;;3.50;1.00;;;;;17.37;48.27;101456.16;2451978;28;46260;-76
2022/09/25 10:16:01;;;;;;;;;2.25;1.00;;;;;17.41;47.51;101469.19;2452180;28;45246;-76
2022/09/25 10:17:13;;;;;;;;;0.00;0.00;;;;;17.46;47.48;101449.53;2452092;28;46337;-75
2022/09/25 10:18:30;;;;;;;;;0.00;0.00;;;;;17.44;46.87;101446.94;2451616;28;45196;-75
2022/09/25 10:19:47;;;;;;;;;2.00;0.75;;;;;17.49;48.25;101449.34;2451985;28;46299;-75
2022/09/25 10:21:17;;;;;;;;;1.25;0.00;;;;;17.50;46.90;101457.25;2451895;27;45543;-75
2022/09/25 10:22:41;;;;;;;;;0.75;0.75;;;;;17.50;46.66;101451.94;2452223;28;45515;-74
2022/09/25 10:23:57;;;;;;;;;0.00;0.00;;;;;17.52;47.42;101452.72;2452104;27;45308;-74
2022/09/25 10:25:08;;;;;;;;;1.00;0.00;;;;;17.54;46.95;101448.19;2451855;28;46352;-75
2022/09/25 10:26:36;;;;;;;;;0.00;0.00;;;;;17.59;47.21;101444.41;2452108;28;45173;-74
2022/09/25 10:27:48;;;;;;;;;0.75;0.75;;;;;17.59;47.17;101442.63;2441147;28;46349;-76
2022/09/25 10:29:09;;;;;;;;;0.00;0.00;;;;;17.59;45.83;101439.09;2444480;28;45312;-76
2022/09/25 10:30:20;;;;;;;;;2.00;1.00;;;;;17.62;46.67;101453.13;2447471;28;45415;-76
2022/09/25 10:31:40;;;;;;;;;1.00;0.00;;;;;17.64;46.76;101445.91;2452125;27;44776;-76
2022/09/25 10:33:10;;;;;;;;;0.00;0.00;;;;;17.70;46.75;101443.88;2451775;28;46555;-77
2022/09/25 10:34:22;;;;;;;;;0.00;0.00;;;;;17.72;46.82;101437.53;2452180;28;45459;-79
2022/09/25 10:35:35;;;;;;;;;1.75;0.75;;;;;17.77;47.12;101437.28;2451955;28;46487;-78
2022/09/25 10:36:50;;;;;;;;;1.00;1.00;;;;;17.79;46.61;101434.53;2451731;28;44590;-77
2022/09/25 10:38:00;;;;;;;;;1.75;1.00;;;;;17.82;46.14;101435.25;2451846;28;45495;-77
2022/09/25 10:39:29;;;;;;;;;0.75;0.00;;;;;17.84;46.93;101437.81;2452110;28;45315;-76
2022/09/25 10:40:40;;;;;;;;;0.00;0.00;;;;;17.84;47.35;101436.03;2441121;28;46247;-77
2022/09/25 10:41:50;;;;;;;;;0.00;0.00;;;;;17.87;46.26;101437.66;2444839;28;45229;-77
2022/09/25 10:43:07;;;;;;;;;1.00;1.00;;;;;17.89;46.78;101430.47;2451761;28;45373;-77
2022/09/25 10:44:33;;;;;;;;;1.00;0.00;;;;;17.91;46.62;101430.38;2452093;28;45345;-78
2022/09/25 10:45:43;;;;;;;;;0.00;0.00;;;;;17.93;47.11;101439.13;2451839;28;46191;-77
2022/09/25 10:50:11;;;;;;;;;1.00;0.00;;;;;17.94;44.00;101435.53;2451997;28;45214;-77
2022/09/25 10:51:22;;;;;;;;;0.00;0.00;;;;;17.95;43.14;101439.94;2451498;27;45324;-78
2022/09/25 10:52:59;;;;;;;;;2.25;1.00;;;;;18.03;45.56;101443.00;2454528;27;44819;-78
2022/09/25 10:54:14;;;;;;;;;2.25;0.00;;;;;18.06;43.77;101436.69;2439046;28;46409;-77
2022/09/25 10:55:36;;;;;;;;;0.75;0.75;;;;;18.09;44.61;101437.38;2438368;28;45323;-78
2022/09/25 10:56:48;;;;;;;;;1.00;1.00;;;;;18.14;44.32;101442.44;2445530;28;46414;-78
2022/09/25 10:58:20;;;;;;;;;0.00;0.00;;;;;18.15;43.31;101433.50;2451847;28;45309;-78
2022/09/25 10:59:30;;;;;;;;;0.00;0.00;;;;;18.18;45.81;101436.00;2451712;28;46266;-77
2022/09/25 11:00:50;;;;;;;;;0.00;0.00;;;;;18.21;45.79;101427.03;2452046;28;45267;-76
2022/09/25 11:02:00;;;;;;;;;0.00;0.00;;;;;18.24;45.49;101423.34;2451614;28;45439;-77
2022/09/25 11:03:22;;;;;;;;;0.50;0.00;;;;;18.29;44.09;101429.28;2451863;27;45322;-76
2022/09/25 11:04:33;;;;;;;;;2.00;1.00;;;;;18.31;45.33;101427.41;2440874;28;47012;-75
2022/09/25 11:05:51;;;;;;;;;0.50;0.00;;;;;18.31;44.77;101428.25;2432549;28;45366;-75
2022/09/25 11:07:06;;;;;;;;;0.50;0.25;;;;;18.34;45.39;101429.91;2448197;27;46279;-75
2022/09/25 11:08:17;;;;;;;;;0.00;0.00;;;;;18.37;45.43;101427.03;2461299;27;45540;-75
2022/09/25 11:09:31;;;;;;;;;1.75;1.00;;;;;18.40;44.86;101429.53;2458099;27;45307;-76
2022/09/25 11:10:58;;;;;;;;;0.00;0.00;;;;;18.41;44.82;101425.94;2451095;28;44698;-75
2022/09/25 11:12:25;;;;;;;;;0.00;0.00;;;;;18.43;43.45;101429.38;2451414;28;46242;-76
2022/09/25 11:13:46;;;;;;;;;1.25;0.00;;;;;18.46;43.19;101440.78;2451839;28;45210;-76
2022/09/25 11:15:08;;;;;;;;;0.00;0.00;;;;;18.48;44.29;101433.56;2451664;28;45347;-76
2022/09/25 11:16:19;;;;;;;;;2.00;0.00;;;;;18.49;45.37;101429.97;2441210;28;44835;-76
2022/09/25 11:17:38;;;;;;;;;2.00;1.00;;;;;18.53;45.08;101428.84;2443991;28;46249;-77
2022/09/25 11:19:27;;;;;;;;;1.00;0.25;;;;;18.57;45.71;101425.06;2442015;28;45340;-77
2022/09/25 11:20:40;;;;;;;;;1.00;0.00;;;;;18.61;43.58;101442.59;2403783;28;45479;-77
2022/09/25 11:22:00;;;;;;;;;0.50;0.50;;;;;18.63;44.43;101437.19;2411790;28;45772;-77
2022/09/25 11:23:25;;;;;;;;;0.00;0.00;;;;;18.66;44.30;101443.22;2439271;28;45454;-77
2022/09/25 11:25:04;;;;;;;;;4.00;1.00;;;;;18.69;42.56;101441.31;2451646;28;44555;-76
2022/09/25 11:26:20;;;;;;;;;1.75;1.75;;;;;18.72;43.65;101443.78;2451491;27;45576;-76
2022/09/25 11:27:46;;;;;;;;;0.25;0.25;;;;;18.74;44.66;101445.41;2451573;28;45420;-76
2022/09/25 11:29:08;;;;;;;;;1.00;1.00;;;;;18.78;44.70;101438.13;2458876;27;45510;-79
2022/09/25 11:30:21;;;;;;;;;1.25;0.00;;;;;18.82;45.24;101442.31;2453252;27;45400;-78
2022/09/25 11:31:40;;;;;;;;;0.50;0.50;;;;;18.86;45.42;101437.69;2451473;28;46358;-79
2022/09/25 11:33:09;;;;;;;;;1.00;1.00;;;;;18.85;43.30;101455.47;2451680;28;45313;-79
2022/09/25 11:35:04;;;;;;;;;2.00;0.00;;;;;18.88;42.87;101455.31;2451628;28;46785;-79
2022/09/25 11:36:24;;;;;;;;;1.00;0.00;;;;;18.86;42.76;101446.53;2438800;28;44859;-81
2022/09/25 11:38:09;;;;;;;;;0.75;0.75;;;;;18.87;43.32;101440.25;2430178;28;46418;-79
2022/09/25 11:41:11;;;;;;;;;0.25;0.00;;;;;18.83;42.47;101457.38;2441778;28;45283;-81
2022/09/25 11:42:49;;;;;;;;;1.00;0.00;;;;;18.82;42.45;101452.09;2441034;28;45258;-80
2022/09/25 11:44:12;;;;;;;;;0.00;0.00;;;;;18.83;43.30;101445.84;2431146;28;47005;-79
2022/09/25 11:45:42;;;;;;;;;1.00;0.00;;;;;18.81;42.97;101445.94;2433271;28;45323;-78
2022/09/25 11:47:14;;;;;;;;;0.00;0.00;;;;;18.86;43.44;101445.69;2446840;28;45338;-80
2022/09/25 11:48:36;;;;;;;;;0.25;0.25;;;;;18.95;43.94;101446.94;2450413;28;44705;-80
2022/09/25 11:49:50;;;;;;;;;2.50;2.00;;;;;18.95;42.88;101442.47;2450872;28;45416;-86
2022/09/25 11:51:26;;;;;;;;;2.50;1.50;;;;;19.00;43.11;101444.88;2451273;28;44777;-81
2022/09/25 11:52:44;;;;;;;;;1.00;0.50;;;;;19.00;41.43;101447.53;2440677;28;47014;-77
2022/09/25 11:54:00;;;;;;;;;1.00;1.00;;;;;19.03;43.00;101447.38;2444821;28;45168;-79
2022/09/25 11:55:20;;;;;;;;;0.00;0.00;;;;;18.99;41.84;101449.34;2443666;27;46223;-78
2022/09/25 11:56:44;;;;;;;;;1.00;1.00;;;;;19.01;42.23;101442.13;2455241;27;45463;-79
2022/09/25 11:58:19;;;;;;;;;2.00;1.00;;;;;19.01;42.06;101446.59;2450783;28;45212;-80
2022/09/25 11:59:37;;;;;;;;;0.25;0.25;;;;;19.01;43.21;101441.28;2441707;28;45238;-80
2022/09/25 12:01:05;;;;;;;;;1.00;1.00;;;;;19.00;43.42;101434.22;2449961;28;45423;-79
2022/09/25 12:02:48;;;;;;;;;2.50;1.00;;;;;19.03;43.65;101439.38;2451329;28;45136;-78
2022/09/25 12:04:28;;;;;;;;;0.00;0.00;;;;;19.04;42.75;101442.91;2451098;28;46759;-79
2022/09/25 12:06:13;;;;;;;;;0.00;0.00;;;;;19.06;43.17;101431.19;2453936;27;45413;-79
2022/09/25 12:07:38;;;;;;;;;1.75;0.75;;;;;19.08;41.96;101439.97;2450469;28;45391;-79
2022/09/25 12:09:41;;;;;;;;;0.00;0.00;;;;;19.11;41.68;101444.28;2440528;28;44818;-80
2022/09/25 12:11:00;;;;;;;;;0.50;0.00;;;;;19.15;42.20;101427.16;2412253;28;45460;-81
2022/09/25 12:12:40;;;;;;;;;2.00;0.00;;;;;19.20;41.58;101432.22;2451257;28;45432;-79
2022/09/25 12:14:04;;;;;;;;;1.25;1.00;;;;;19.23;42.18;101432.94;2451252;28;45507;-79
2022/09/25 12:15:21;;;;;;;;;2.00;1.00;;;;;19.29;42.84;101430.81;2451299;27;45195;-81
2022/09/25 12:16:43;;;;;;;;;0.00;0.00;;;;;19.32;41.38;101431.50;2451227;27;46178;-80
2022/09/25 12:18:11;;;;;;;;;1.25;1.00;;;;;19.32;42.01;101420.84;2459262;27;45212;-78
2022/09/25 12:19:47;;;;;;;;;1.00;1.00;;;;;19.34;42.55;101428.75;2453979;27;45298;-79
2022/09/25 12:21:03;;;;;;;;;0.00;0.00;;;;;19.35;41.49;101427.81;2451123;28;45196;-79
2022/09/25 12:22:25;;;;;;;;;3.50;0.00;;;;;19.33;41.72;101422.56;2450667;28;46429;-77
2022/09/25 12:23:46;;;;;;;;;1.75;0.75;;;;;19.36;41.56;101418.00;2451306;28;44573;-77
2022/09/25 12:25:25;;;;;;;;;0.50;0.50;;;;;19.38;40.56;101426.75;2451298;27;46257;-77
2022/09/25 12:26:54;;;;;;;;;0.00;0.00;;;;;19.34;39.81;101428.75;2451975;27;44591;-77
2022/09/25 12:28:35;;;;;;;;;0.75;0.00;;;;;19.34;41.25;101415.41;2448118;28;47176;-78
2022/09/25 12:30:11;;;;;;;;;0.00;0.00;;;;;19.34;40.50;101413.63;2441599;28;45251;-77
2022/09/25 12:31:27;;;;;;;;;0.50;0.50;;;;;19.36;40.51;101413.50;2451157;28;45603;-77
2022/09/25 12:32:56;;;;;;;;;0.00;0.00;;;;;19.38;40.29;101414.31;2451388;28;45311;-78
2022/09/25 12:34:27;;;;;;;;;1.00;0.00;;;;;19.40;39.50;101414.19;2450982;27;46365;-78
2022/09/25 12:35:46;;;;;;;;;0.00;0.00;;;;;19.44;40.24;101418.38;2451200;28;45372;-78
2022/09/25 12:37:11;;;;;;;;;1.00;0.00;;;;;19.48;39.23;101414.59;2450521;28;46296;-80
2022/09/25 12:38:40;;;;;;;;;2.00;1.00;;;;;19.56;41.14;101408.78;2451055;28;45218;-79
2022/09/25 12:39:58;;;;;;;;;1.00;1.00;;;;;19.59;41.06;101400.59;2451004;28;46227;-80
2022/09/25 12:41:17;;;;;;;;;0.00;0.00;;;;;19.64;41.02;101408.31;2451113;28;45224;-79
2022/09/25 12:42:53;;;;;;;;;0.00;0.00;;;;;19.67;39.78;101405.47;2450966;28;46261;-78
2022/09/25 12:44:10;;;;;;;;;1.00;0.00;;;;;19.70;38.92;101407.09;2440502;28;45182;-79
2022/09/25 12:45:50;;;;;;;;;0.00;0.00;;;;;19.70;38.80;101412.44;2444319;28;46600;-79
2022/09/25 12:47:09;;;;;;;;;0.00;0.00;;;;;19.69;38.82;101403.56;2449283;27;45433;-79
2022/09/25 12:48:30;;;;;;;;;1.25;0.00;;;;;19.68;37.87;101401.84;2450772;28;45546;-78
2022/09/25 12:49:55;;;;;;;;;1.00;0.00;;;;;19.67;37.94;101403.69;2451186;28;45172;-77
2022/09/25 12:51:36;;;;;;;;;0.00;0.00;;;;;19.74;39.64;101405.94;2450700;28;45402;-77
2022/09/25 12:52:50;;;;;;;;;1.00;0.00;;;;;19.79;39.99;101404.72;2457844;27;46887;-77
2022/09/25 12:54:23;;;;;;;;;1.00;0.00;;;;;19.85;40.37;101394.63;2460346;27;45390;-77
2022/09/25 12:55:46;;;;;;;;;0.75;0.75;;;;;19.91;39.99;101388.91;2443055;27;45313;-76
2022/09/25 12:57:10;;;;;;;;;0.50;0.50;;;;;19.96;39.52;101400.13;2450780;28;45668;-79
2022/09/25 12:58:35;;;;;;;;;1.00;1.00;;;;;20.01;39.24;101390.03;2451249;28;45422;-78
2022/09/25 12:59:53;;;;;;;;;1.00;1.00;;;;;20.01;38.81;101390.03;2450946;28;45531;-77
2022/09/25 13:01:29;;;;;;;;;1.00;1.00;;;;;20.01;38.75;101394.50;2450972;28;45241;-77
2022/09/25 13:03:00;;;;;;;;;2.50;1.00;;;;;20.02;39.57;101390.91;2449215;28;46324;-77
2022/09/25 13:04:41;;;;;;;;;0.50;0.50;;;;;20.01;38.80;101390.03;2460104;27;45250;-78
2022/09/25 13:06:08;;;;;;;;;0.00;0.00;;;;;20.02;39.20;101381.09;2449757;27;45495;-77
2022/09/25 13:07:39;;;;;;;;;1.00;0.00;;;;;20.06;39.84;101383.53;2444888;27;45391;-77
2022/09/25 13:09:05;;;;;;;;;1.00;1.00;;;;;20.08;40.19;101386.97;2453045;27;46424;-77
2022/09/25 13:10:40;;;;;;;;;0.00;0.00;;;;;20.05;40.00;101384.53;2459055;27;44581;-77
2022/09/25 13:12:14;;;;;;;;;0.00;0.00;;;;;20.00;39.70;101384.81;2453757;27;46827;-79
2022/09/25 13:13:29;;;;;;;;;1.25;0.00;;;;;19.91;39.67;101372.91;2450411;28;44773;-79
2022/09/25 13:14:54;;;;;;;;;0.00;0.00;;;;;19.86;38.68;101380.31;2450587;28;47097;-79
2022/09/25 13:16:05;;;;;;;;;0.00;0.00;;;;;19.84;39.33;101383.09;2451086;28;44535;-79
2022/09/25 13:17:15;;;;;;;;;0.50;0.50;;;;;19.84;40.26;101382.22;2450878;28;45455;-79
2022/09/25 13:18:28;;;;;;;;;1.25;0.25;;;;;19.82;39.91;101377.00;2450753;27;45181;-79
2022/09/25 13:19:39;;;;;;;;;0.00;0.00;;;;;19.83;37.78;101375.19;2450650;27;46623;-79
2022/09/25 13:20:57;;;;;;;;;0.00;0.00;;;;;19.82;38.04;101377.00;2450672;28;45248;-77
2022/09/25 13:22:23;;;;;;;;;0.75;0.75;;;;;19.85;38.08;101379.47;2450474;28;45397;-78
2022/09/25 13:23:37;;;;;;;;;0.75;0.75;;;;;19.86;38.53;101372.31;2447925;28;45528;-78
2022/09/25 13:24:55;;;;;;;;;0.00;0.00;;;;;19.85;38.42;101373.28;2449638;28;46170;-78
2022/09/25 13:26:15;;;;;;;;;1.75;0.00;;;;;19.86;38.52;101375.84;2450360;27;44761;-78
2022/09/25 13:27:27;;;;;;;;;0.00;0.00;;;;;19.84;38.58;101374.22;2441022;28;45388;-77
2022/09/25 13:28:58;;;;;;;;;0.00;0.00;;;;;19.86;38.03;101378.53;2444778;28;45476;-78
2022/09/25 13:30:20;;;;;;;;;4.75;1.00;;;;;19.88;38.11;101376.59;2438191;28;46462;-78
2022/09/25 13:31:41;;;;;;;;;0.25;0.25;;;;;19.88;37.65;101373.94;2442525;27;45455;-78
2022/09/25 13:32:55;;;;;;;;;0.75;0.75;;;;;19.94;38.92;101372.72;2443935;28;46255;-78
2022/09/25 13:34:16;;;;;;;;;0.00;0.00;;;;;19.97;38.52;101372.53;2450699;28;45252;-78
2022/09/25 13:35:29;;;;;;;;;0.00;0.00;;;;;20.00;37.51;101374.16;2440652;28;46378;-78
2022/09/25 13:36:55;;;;;;;;;0.00;0.00;;;;;20.02;37.19;101380.22;2447841;27;45305;-76
2022/09/25 13:40:41;;;;;;;;;0.00;0.00;;;;;20.06;36.97;101371.06;2452953;27;45500;-77
2022/09/25 13:41:18;;;;;;;;;0.00;0.00;;;;;20.12;36.43;101368.03;2451850;28;45752;-77
2022/09/25 13:42:45;;;;;;;;;0.00;0.00;;;;;20.19;37.68;101373.00;2452503;28;45176;-77
2022/09/25 13:44:33;;;;;;;;;0.00;0.00;;;;;20.21;37.24;101363.94;2451985;27;45346;-77
2022/09/25 13:45:43;;;;;;;;;0.00;0.00;;;;;20.24;38.14;101363.75;2447670;28;45301;-77
2022/09/25 13:47:22;;;;;;;;;3.00;0.00;;;;;20.34;38.58;101368.47;2446820;28;45247;-77
2022/09/25 13:48:35;;;;;;;;;0.25;0.25;;;;;20.41;38.13;101358.25;2447587;28;45509;-77
2022/09/25 13:49:54;;;;;;;;;1.00;1.00;;;;;20.41;37.41;101356.44;2452879;27;46312;-77
2022/09/25 13:51:17;;;;;;;;;2.00;0.00;;;;;20.51;38.36;101363.84;2445179;28;45275;-77
2022/09/25 13:53:16;;;;;;;;;0.00;0.00;;;;;20.54;37.42;101363.66;2442872;28;46168;-76
2022/09/25 13:54:27;;;;;;;;;1.00;1.00;;;;;20.61;37.35;101364.09;2455253;27;45430;-77
2022/09/25 13:55:41;;;;;;;;;1.00;0.00;;;;;20.69;38.15;101367.94;2446872;28;45424;-77
2022/09/25 13:56:53;;;;;;;;;1.00;1.00;;;;;20.69;36.23;101362.63;2447759;28;44648;-76
2022/09/25 13:58:16;;;;;;;;;0.00;0.00;;;;;20.75;37.55;101361.34;2451570;28;45325;-77
2022/09/25 13:59:36;;;;;;;;;1.00;1.00;;;;;20.80;38.15;101363.72;2450833;28;45227;-76
2022/09/25 14:00:54;;;;;;;;;0.00;0.00;;;;;20.87;38.11;101359.66;2449478;28;45380;-77
2022/09/25 14:02:37;;;;;;;;;1.00;0.25;;;;;20.86;35.93;101359.78;2447501;27;45178;-77
2022/09/25 14:03:48;;;;;;;;;0.00;0.00;;;;;20.82;37.75;101351.09;2443813;27;45524;-77
2022/09/25 14:04:59;;;;;;;;;0.50;0.50;;;;;20.82;37.73;101351.09;2451042;28;44681;-76
2022/09/25 14:06:16;;;;;;;;;1.00;0.00;;;;;20.86;37.59;101351.78;2449703;28;46314;-76
2022/09/25 14:07:28;;;;;;;;;0.00;0.00;;;;;20.90;37.74;101343.44;2449334;28;45338;-76
2022/09/25 14:08:41;;;;;;;;;0.00;0.00;;;;;20.92;37.95;101346.88;2449938;28;45420;-77
2022/09/25 14:09:55;;;;;;;;;0.00;0.00;;;;;20.97;38.49;101348.34;2451917;28;45145;-75
2022/09/25 14:11:09;;;;;;;;;0.50;0.50;;;;;21.03;38.15;101348.00;2451582;27;45634;-75
2022/09/25 14:12:47;;;;;;;;;0.75;0.75;;;;;21.10;37.52;101351.09;2452196;28;44737;-74
2022/09/25 14:14:00;;;;;;;;;1.00;0.00;;;;;21.11;36.38;101344.78;2448489;27;45559;-74
2022/09/25 14:15:23;;;;;;;;;0.00;0.00;;;;;21.16;37.02;101355.16;2452502;28;45406;-75
2022/09/25 14:16:42;;;;;;;;;1.00;0.00;;;;;21.17;37.02;101351.53;2458997;27;45331;-74
2022/09/25 14:17:56;;;;;;;;;0.00;0.00;;;;;21.18;37.03;101350.56;2457325;27;45206;-75
2022/09/25 14:19:07;;;;;;;;;0.00;0.00;;;;;21.20;37.16;101354.00;2452063;28;46307;-75
2022/09/25 14:20:34;;;;;;;;;0.00;0.00;;;;;21.16;35.51;101352.50;2452322;28;45229;-74
2022/09/25 14:21:49;;;;;;;;;0.00;0.00;;;;;21.13;36.94;101342.88;2451697;28;45428;-74
2022/09/25 14:23:05;;;;;;;;;0.00;0.00;;;;;21.16;37.30;101347.16;2452142;28;44686;-74
2022/09/25 14:24:27;;;;;;;;;1.00;1.00;;;;;21.12;36.65;101344.69;2452126;27;46659;-74
2022/09/25 14:25:41;;;;;;;;;0.50;0.50;;;;;21.08;36.91;101345.00;2451816;28;45199;-74
2022/09/25 14:26:52;;;;;;;;;0.25;0.00;;;;;21.07;36.84;101344.13;2452104;28;46244;-74
2022/09/25 14:28:21;;;;;;;;;0.00;0.00;;;;;20.99;36.51;101346.47;2452189;28;45177;-74
2022/09/25 14:29:39;;;;;;;;;0.00;0.00;;;;;20.92;36.47;101344.19;2451685;28;46350;-74
2022/09/25 14:30:54;;;;;;;;;0.00;0.00;;;;;20.86;36.53;101347.28;2452032;28;45325;-74
2022/09/25 14:32:29;;;;;;;;;8.25;6.75;;;;;20.84;37.19;101343.84;2451713;28;45655;-75
2022/09/25 14:33:58;;;;;;;;;1.00;1.00;;;;;20.79;37.58;101348.66;2451338;27;45595;-75
2022/09/25 14:35:23;;;;;;;;;1.50;1.00;;;;;20.75;36.91;101344.47;2443810;28;46369;-75
2022/09/25 14:36:43;;;;;;;;;1.00;1.00;;;;;20.75;36.46;101349.81;2442096;28;45235;-74
2022/09/25 14:38:06;;;;;;;;;1.00;1.00;;;;;20.72;36.87;101339.34;2450444;28;45353;-74
2022/09/25 14:39:19;;;;;;;;;2.75;1.00;;;;;20.72;37.48;101344.69;2441416;28;45314;-75
2022/09/25 14:40:41;;;;;;;;;0.00;0.00;;;;;20.73;37.96;101341.06;2440253;28;45303;-75
2022/09/25 14:42:19;;;;;;;;;0.00;0.00;;;;;20.75;37.17;101341.78;2452103;28;45229;-75
2022/09/25 14:43:30;;;;;;;;;0.00;0.00;;;;;20.73;36.78;101335.72;2451835;28;45387;-75
2022/09/25 14:45:07;;;;;;;;;0.75;0.00;;;;;20.75;37.25;101333.78;2452040;28;45370;-75
2022/09/25 14:46:20;;;;;;;;;1.25;0.75;;;;;20.74;36.72;101337.44;2442983;28;45519;-75
2022/09/25 14:47:37;;;;;;;;;2.00;1.00;;;;;20.75;36.55;101337.31;2447862;28;45499;-75
2022/09/25 14:48:53;;;;;;;;;0.00;0.00;;;;;20.76;37.14;101319.47;2451967;28;45475;-75
2022/09/25 14:50:05;;;;;;;;;3.00;3.00;;;;;20.81;37.63;101333.38;2451892;28;44597;-75
2022/09/25 14:51:23;;;;;;;;;0.25;0.25;;;;;20.85;36.99;101332.22;2449421;28;46666;-75
2022/09/25 14:52:36;;;;;;;;;19.75;17.75;;;;;20.87;37.12;101332.97;2446740;28;44775;-75
2022/09/25 14:53:53;;;;;;;;;1.00;0.00;;;;;20.84;36.32;101327.81;2451858;28;46311;-75
2022/09/25 14:55:05;;;;;;;;;8.50;7.50;;;;;20.78;36.98;101329.09;2452015;28;45254;-75
2022/09/25 14:56:16;;;;;;;;;4.75;4.50;;;;;20.79;37.40;101324.63;2452347;27;45594;-75
2022/09/25 14:57:31;;;;;;;;;15.50;15.50;;;;;20.78;37.99;101330.91;2461779;27;44646;-75
2022/09/25 14:58:53;;;;;;;;;3.50;3.50;;;;;20.79;37.30;101335.31;2452950;27;45260;-75
2022/09/25 15:00:07;;;;;;;;;1.00;1.00;;;;;20.77;37.61;101322.03;2451636;27;45195;-75
2022/09/25 15:01:29;;;;;;;;;25.75;25.00;;;;;20.76;36.94;101333.69;2451578;28;46166;-75
2022/09/25 15:02:44;;;;;;;;;10.00;10.00;;;;;20.73;36.65;101341.91;2451763;28;45175;-75
2022/09/25 15:04:00;;;;;;;;;7.25;7.25;;;;;20.68;37.50;101334.22;2451734;28;45327;-75
2022/09/25 15:05:25;;;;;;;;;3.75;3.75;;;;;20.67;37.72;101332.47;2451892;28;45235;-78
2022/09/25 15:06:39;;;;;;;;;2.75;0.50;;;;;20.63;37.96;101336.34;2455674;27;46611;-79
2022/09/25 15:07:49;;;;;;;;;4.25;4.00;;;;;20.57;38.04;101336.72;2453411;27;45242;-77
2022/09/25 15:09:01;;;;;;;;;2.50;2.50;;;;;20.50;38.56;101341.63;2451640;28;45322;-81
2022/09/25 15:10:34;;;;;;;;;7.00;5.50;;;;;20.41;38.74;101343.09;2451667;28;45279;-80
2022/09/25 15:11:44;;;;;;;;;4.00;4.00;;;;;20.35;39.13;101341.66;2457416;27;45299;-78
2022/09/25 15:13:12;;;;;;;;;1.00;1.00;;;;;20.31;39.21;101331.31;2459048;27;44618;-79
2022/09/25 15:14:23;;;;;;;;;2.25;2.25;;;;;20.27;39.50;101336.00;2451636;28;45298;-78
2022/09/25 15:15:34;;;;;;;;;3.25;2.00;;;;;20.24;39.21;101339.72;2451834;28;44573;-78
2022/09/25 15:18:14;;;;;;;;;1.25;1.00;;;;;20.20;39.92;101340.84;2457892;27;44718;-79
2022/09/25 15:19:31;;;;;;;;;0.25;0.25;;;;;20.14;39.79;101343.94;2451723;27;45526;-78